createdAt,value
2022-11-28T00:02:08.833Z,19.69
2022-11-28T00:07:02.172Z,19.66
2022-11-28T00:11:56.640Z,19.55
2022-11-28T00:16:50.060Z,19.52
2022-11-28T00:21:43.908Z,19.54
2022-11-28T00:26:40.145Z,19.55
2022-11-28T00:31:53.079Z,19.65
2022-11-28T00:36:48.509Z,19.62
2022-11-28T00:41:42.357Z,19.62
2022-11-28T00:46:35.409Z,19.62
2022-11-28T00:51:31.744Z,19.53
2022-11-28T00:56:28.469Z,19.64
2022-11-28T01:01:22.957Z,19.65
2022-11-28T01:06:23.398Z,19.62
2022-11-28T01:11:16.799Z,19.66
2022-11-28T01:16:10.803Z,19.68
2022-11-28T01:21:04.776Z,19.64
2022-11-28T01:25:58.016Z,19.61
2022-11-28T01:30:51.858Z,19.64
2022-11-28T01:35:55.491Z,19.44
2022-11-28T01:40:50.329Z,19.54
2022-11-28T01:45:43.549Z,19.65
2022-11-28T01:50:38.126Z,19.64
2022-11-28T01:55:36.705Z,19.62
2022-11-28T02:00:30.475Z,19.63
2022-11-28T02:05:24.260Z,19.61
2022-11-28T02:10:22.752Z,19.61
2022-11-28T02:15:21.083Z,19.60
2022-11-28T02:20:38.681Z,19.59
2022-11-28T02:26:19.820Z,19.49
2022-11-28T02:31:28.425Z,19.58
2022-11-28T02:36:28.546Z,19.44
2022-11-28T02:41:40.301Z,19.57
2022-11-28T02:46:44.995Z,19.43
2022-11-28T02:52:04.756Z,19.56
2022-11-28T02:56:58.193Z,19.55
2022-11-28T03:01:52.690Z,19.32
2022-11-28T03:07:01.518Z,19.54
2022-11-28T03:12:15.423Z,19.52
2022-11-28T03:17:41.857Z,19.54
2022-11-28T03:22:53.261Z,19.51
2022-11-28T03:27:53.947Z,19.49
2022-11-28T03:32:52.498Z,19.39
2022-11-28T03:37:51.954Z,19.44
2022-11-28T03:42:54.340Z,19.52
2022-11-28T03:47:54.490Z,19.52
2022-11-28T03:52:54.741Z,19.52
2022-11-28T03:58:12.427Z,19.50
2022-11-28T04:03:51.150Z,19.50
2022-11-28T04:08:51.802Z,19.48
2022-11-28T04:14:12.845Z,19.49
2022-11-28T04:19:15.028Z,19.47
2022-11-28T04:24:13.592Z,19.47
2022-11-28T04:29:10.962Z,19.47
2022-11-28T04:34:08.621Z,19.26
2022-11-28T04:39:03.617Z,19.34
2022-11-28T04:44:09.038Z,19.34
2022-11-28T04:49:06.214Z,19.47
2022-11-28T04:54:11.136Z,19.33
2022-11-28T04:59:08.290Z,19.45
2022-11-28T05:04:01.510Z,19.46
2022-11-28T05:08:55.153Z,19.46
2022-11-28T05:13:49.174Z,19.44
2022-11-28T05:18:43.434Z,19.35
2022-11-28T05:23:41.781Z,19.33
2022-11-28T05:28:35.185Z,19.42
2022-11-28T05:33:31.419Z,19.44
2022-11-28T05:38:25.334Z,19.43
2022-11-28T05:43:19.350Z,19.31
2022-11-28T05:48:13.241Z,19.44
2022-11-28T05:53:08.063Z,19.31
2022-11-28T05:58:02.416Z,19.43
2022-11-28T06:03:01.023Z,19.30
2022-11-28T06:07:55.067Z,19.41
2022-11-28T06:12:49.447Z,19.42
2022-11-28T06:17:43.318Z,19.42
2022-11-28T06:22:36.755Z,19.34
2022-11-28T06:27:29.825Z,19.21
2022-11-28T06:32:23.788Z,19.21
2022-11-28T06:37:17.860Z,19.08
2022-11-28T06:42:11.999Z,18.94
2022-11-28T06:47:06.674Z,19.00
2022-11-28T06:52:00.318Z,19.04
2022-11-28T06:56:53.592Z,18.82
2022-11-28T07:01:47.117Z,19.01
2022-11-28T07:06:40.531Z,19.03
2022-11-28T07:11:33.728Z,19.02
2022-11-28T07:16:30.373Z,18.99
2022-11-28T07:21:23.793Z,18.98
2022-11-28T07:26:20.410Z,19.14
2022-11-28T07:31:39.379Z,19.15
2022-11-28T07:36:33.515Z,19.16
2022-11-28T07:41:27.713Z,19.17
2022-11-28T07:46:21.321Z,18.91
2022-11-28T07:51:21.654Z,19.06
2022-11-28T07:56:19.666Z,19.18
2022-11-28T08:01:34.054Z,19.18
2022-11-28T08:06:30.094Z,19.20
2022-11-28T08:11:25.238Z,19.08
2022-11-28T08:16:21.309Z,19.08
2022-11-28T08:21:20.178Z,19.15
2022-11-28T08:26:18.349Z,19.19
2022-11-28T08:31:18.245Z,19.20
2022-11-28T08:36:13.410Z,19.07
2022-11-28T08:41:12.987Z,19.19
2022-11-28T08:46:07.660Z,19.12
2022-11-28T08:51:01.429Z,19.20
2022-11-28T08:55:58.802Z,19.08
2022-11-28T09:00:52.118Z,19.18
2022-11-28T09:05:47.060Z,19.09
2022-11-28T09:10:40.941Z,19.17
2022-11-28T09:15:35.069Z,19.20
2022-11-28T09:20:27.629Z,19.21
2022-11-28T09:25:20.528Z,19.19
2022-11-28T09:30:13.989Z,19.20
2022-11-28T09:35:08.302Z,19.12
2022-11-28T09:40:12.980Z,19.19
2022-11-28T09:45:14.151Z,19.22
2022-11-28T09:50:17.475Z,19.20
2022-11-28T09:55:42.517Z,19.22
2022-11-28T10:00:56.922Z,19.22
2022-11-28T10:05:54.362Z,19.14
2022-11-28T10:10:51.216Z,19.20
2022-11-28T10:16:12.218Z,19.20
2022-11-28T10:21:32.210Z,19.21
2022-11-28T10:26:37.052Z,19.20
2022-11-28T10:31:42.834Z,19.19
2022-11-28T10:36:47.011Z,19.17
2022-11-28T10:42:13.880Z,19.20
2022-11-28T10:47:23.789Z,19.19
2022-11-28T10:52:30.529Z,19.08
2022-11-28T10:57:47.318Z,19.20
2022-11-28T11:02:52.349Z,19.20
2022-11-28T11:08:00.854Z,19.20
2022-11-28T11:12:54.266Z,19.11
2022-11-28T11:17:47.885Z,19.18
2022-11-28T11:22:43.051Z,19.07
2022-11-28T11:27:38.459Z,18.82
2022-11-28T11:32:32.143Z,19.09
2022-11-28T11:37:39.085Z,19.26
2022-11-28T11:42:33.457Z,19.18
2022-11-28T11:47:48.030Z,19.17
2022-11-28T11:52:41.757Z,19.23
2022-11-28T11:58:00.507Z,19.14
2022-11-28T12:02:56.032Z,19.27
2022-11-28T12:08:08.140Z,19.26
2022-11-28T12:13:02.803Z,19.23
2022-11-28T12:18:13.746Z,19.11
2022-11-28T12:23:17.552Z,19.22
2022-11-28T12:28:43.108Z,19.23
2022-11-28T12:34:03.356Z,19.23
2022-11-28T12:39:25.312Z,19.21
2022-11-28T12:44:47.791Z,18.97
2022-11-28T12:50:01.307Z,19.09
2022-11-28T12:55:20.619Z,19.14
2022-11-28T13:00:23.151Z,19.04
2022-11-28T13:05:26.675Z,19.16
2022-11-28T13:10:38.735Z,19.16
2022-11-28T13:16:01.152Z,19.05
2022-11-28T13:21:04.847Z,19.06
2022-11-28T13:26:08.985Z,19.08
2022-11-28T13:31:15.484Z,19.16
2022-11-28T13:38:35.076Z,19.22
2022-11-28T13:42:14.300Z,19.26
2022-11-28T13:46:57.541Z,19.04
2022-11-28T13:52:19.150Z,19.31
2022-11-28T13:57:16.753Z,19.26
2022-11-28T14:02:30.520Z,19.24
2022-11-28T14:07:32.752Z,19.21
2022-11-28T14:12:36.883Z,19.38
2022-11-28T14:17:55.535Z,19.41
2022-11-28T14:23:34.385Z,19.47
2022-11-28T14:28:33.834Z,19.50
2022-11-28T14:33:38.671Z,19.40
2022-11-28T14:38:31.344Z,19.53
2022-11-28T14:43:32.447Z,19.51
2022-11-28T14:48:29.673Z,19.52
2022-11-28T14:53:45.590Z,19.55
2022-11-28T14:58:39.677Z,19.54
2022-11-28T15:03:44.082Z,19.47
2022-11-28T15:09:02.960Z,19.44
2022-11-28T15:14:17.076Z,19.48
2022-11-28T15:19:32.069Z,19.50
2022-11-28T15:24:39.148Z,19.34
2022-11-28T15:29:32.686Z,19.29
2022-11-28T15:34:31.427Z,19.42
2022-11-28T15:39:40.410Z,19.27
2022-11-28T15:44:37.003Z,19.40
2022-11-28T15:49:33.303Z,19.27
2022-11-28T15:54:36.491Z,19.41
2022-11-28T15:59:31.305Z,19.38
2022-11-28T16:04:25.017Z,19.37
2022-11-28T16:09:18.453Z,19.40
2022-11-28T16:14:45.062Z,19.37
2022-11-28T16:19:38.725Z,19.24
2022-11-28T16:24:43.445Z,19.27
2022-11-28T16:29:37.458Z,19.33
2022-11-28T16:35:06.168Z,19.36
2022-11-28T16:40:07.982Z,19.35
2022-11-28T16:45:19.666Z,19.34
2022-11-28T16:50:41.019Z,19.35
2022-11-28T16:55:34.605Z,19.36
2022-11-28T17:00:28.179Z,19.24
2022-11-28T17:05:22.495Z,19.16
2022-11-28T17:10:16.216Z,19.08
2022-11-28T17:15:23.754Z,19.37
2022-11-28T17:20:18.492Z,19.37
2022-11-28T17:25:21.522Z,19.29
2022-11-28T17:30:19.712Z,19.31
2022-11-28T17:35:29.170Z,19.42
2022-11-28T17:40:38.371Z,19.47
2022-11-28T17:45:35.176Z,19.24
2022-11-28T17:50:28.643Z,19.44
2022-11-28T17:55:22.291Z,19.49
2022-11-28T18:00:16.238Z,19.33
2022-11-28T18:05:10.708Z,19.46
2022-11-28T18:10:05.767Z,19.47
2022-11-28T18:15:01.884Z,19.33
2022-11-28T18:19:57.738Z,19.47
2022-11-28T18:24:51.738Z,19.38
2022-11-28T18:29:45.181Z,19.54
2022-11-28T18:34:39.472Z,19.43
2022-11-28T18:39:33.892Z,19.56
2022-11-28T18:44:27.241Z,19.58
2022-11-28T18:49:21.135Z,19.55
2022-11-28T18:54:20.545Z,19.56
2022-11-28T18:59:14.720Z,19.58
2022-11-28T19:04:10.713Z,19.51
2022-11-28T19:09:08.527Z,19.57
2022-11-28T19:14:01.839Z,19.45
2022-11-28T19:18:54.913Z,19.58
2022-11-28T19:23:49.340Z,19.63
2022-11-28T19:28:43.982Z,19.68
2022-11-28T19:33:37.806Z,19.47
2022-11-28T19:38:31.804Z,19.76
2022-11-28T19:43:29.361Z,19.79
2022-11-28T19:48:23.546Z,19.79
2022-11-28T19:53:19.169Z,19.66
2022-11-28T19:58:13.666Z,19.74
2022-11-28T20:03:07.387Z,19.67
2022-11-28T20:08:00.768Z,19.65
2022-11-28T20:12:54.798Z,19.54
2022-11-28T20:17:49.150Z,19.64
2022-11-28T20:22:42.361Z,19.62
2022-11-28T20:27:35.415Z,19.66
2022-11-28T20:32:28.220Z,19.58
2022-11-28T20:37:21.846Z,19.59
2022-11-28T20:42:17.418Z,19.64
2022-11-28T20:47:11.759Z,19.77
2022-11-28T20:52:06.578Z,19.76
2022-11-28T21:02:14.132Z,19.77
2022-11-28T21:07:08.223Z,19.77
2022-11-28T21:12:01.953Z,19.54
2022-11-28T21:16:56.258Z,19.63
2022-11-28T21:21:50.037Z,19.67
2022-11-28T21:26:48.141Z,19.66
2022-11-28T21:31:45.151Z,19.62
2022-11-28T21:36:39.346Z,19.59
2022-11-28T21:41:33.453Z,19.63
2022-11-28T21:46:28.370Z,19.66
2022-11-28T21:51:24.470Z,19.56
2022-11-28T21:56:20.092Z,19.53
2022-11-28T22:01:14.815Z,19.40
2022-11-28T22:06:28.901Z,19.67
2022-11-28T22:11:22.808Z,19.55
2022-11-28T22:16:25.958Z,19.63
2022-11-28T22:26:37.982Z,19.61
2022-11-28T22:31:31.774Z,19.75
2022-11-28T22:36:26.385Z,19.73
2022-11-28T22:41:28.362Z,19.71
2022-11-28T22:46:22.484Z,19.65
2022-11-28T22:51:21.732Z,19.60
2022-11-28T22:56:16.029Z,19.65
2022-11-28T23:01:10.451Z,19.51
2022-11-28T23:06:11.517Z,19.47
2022-11-28T23:11:06.387Z,19.61
2022-11-28T23:16:29.014Z,19.29
2022-11-28T23:21:23.902Z,19.39
2022-11-28T23:26:20.697Z,19.44
2022-11-28T23:31:17.883Z,19.50
2022-11-28T23:36:41.797Z,19.48
2022-11-28T23:41:35.858Z,19.31
2022-11-28T23:46:29.633Z,19.46
2022-11-28T23:51:24.798Z,19.43
2022-11-28T23:56:42.946Z,19.43
